Time;durP1;ratioP1;P1;durP2;ratioP2;P2;SDS_P1;SDS_P2;PMS_P1;PMS_P2;Temp;Humidity;BMP_temperature;BMP_pressure;BME280_temperature;BME280_humidity;BME280_pressure;Samples;Min_cycle;Max_cycle;Signal;HPM_P1;HPM_P2
2023/03/27 00:00:44;;;;;;;11.20;1.92;;;2.10;99.90;;;;;;4920413;28;94031;-29
2023/03/27 00:03:12;;;;;;;2.97;2.50;;;2.00;99.90;;;;;;4920092;28;95239;-30
2023/03/27 00:05:39;;;;;;;4.07;1.95;;;2.00;99.90;;;;;;4920569;28;95419;-30
2023/03/27 00:08:08;;;;;;;3.42;2.00;;;2.00;99.90;;;;;;4921115;28;93523;-31
2023/03/27 00:10:35;;;;;;;6.70;2.85;;;1.90;99.90;;;;;;4920542;28;93588;-35
2023/03/27 00:13:02;;;;;;;3.08;1.65;;;1.90;99.90;;;;;;4920213;28;94845;-33
2023/03/27 00:15:29;;;;;;;4.18;1.65;;;1.80;99.90;;;;;;4920525;28;94408;-33
2023/03/27 00:17:57;;;;;;;3.13;2.22;;;1.80;99.90;;;;;;4920122;28;93329;-30
2023/03/27 00:20:25;;;;;;;2.67;2.10;;;1.80;99.90;;;;;;4921147;28;91849;-32
2023/03/27 00:22:54;;;;;;;4.40;1.25;;;1.70;99.90;;;;;;4920457;28;95194;-31
2023/03/27 00:25:21;;;;;;;5.95;3.20;;;1.70;99.90;;;;;;4920168;28;94650;-33
2023/03/27 00:27:48;;;;;;;5.05;1.80;;;1.70;99.90;;;;;;4920069;28;94054;-30
2023/03/27 00:30:14;;;;;;;2.30;2.03;;;1.70;99.90;;;;;;4920130;28;92100;-33
2023/03/27 00:32:40;;;;;;;6.85;2.28;;;1.60;99.90;;;;;;4919333;28;94518;-35
2023/03/27 00:35:08;;;;;;;5.32;2.00;;;1.60;99.90;;;;;;4920007;28;96539;-32
2023/03/27 00:37:36;;;;;;;3.47;1.73;;;1.60;99.90;;;;;;4920017;28;93274;-29
2023/03/27 00:40:06;;;;;;;;;;;1.60;99.90;;;;;;4920107;28;94715;-30
2023/03/27 00:42:33;;;;;;;3.05;2.03;;;1.60;99.90;;;;;;4921473;28;94410;-34
2023/03/27 00:45:00;;;;;;;2.55;1.77;;;1.60;99.90;;;;;;4920175;28;94824;-32
2023/03/27 00:47:32;;;;;;;2.45;1.73;;;1.50;99.90;;;;;;4920473;28;94522;-31
2023/03/27 00:50:10;;;;;;;4.88;1.80;;;1.50;99.90;;;;;;4919814;28;94139;-32
2023/03/27 00:52:39;;;;;;;4.85;1.67;;;1.50;99.90;;;;;;4919674;28;95509;-30
2023/03/27 00:55:11;;;;;;;15.32;2.28;;;1.50;99.90;;;;;;4920363;28;95074;-31
2023/03/27 00:57:36;;;;;;;9.10;1.75;;;1.60;99.90;;;;;;4919575;28;93057;-31
2023/03/27 01:00:11;;;;;;;3.65;2.15;;;1.50;99.90;;;;;;4919872;28;93247;-31
2023/03/27 01:02:41;;;;;;;2.90;2.45;;;1.50;99.90;;;;;;4919703;28;94285;-32
2023/03/27 01:05:08;;;;;;;7.07;2.45;;;1.50;99.90;;;;;;4919716;28;94146;-31
2023/03/27 01:07:35;;;;;;;8.43;2.53;;;1.50;99.90;;;;;;4920431;28;92156;-32
2023/03/27 01:10:03;;;;;;;9.57;3.67;;;1.50;99.90;;;;;;4920154;28;93930;-32
2023/03/27 01:12:47;;;;;;;4.38;2.85;;;1.50;99.90;;;;;;4919072;28;93434;-33
2023/03/27 01:15:40;;;;;;;4.28;1.73;;;1.50;99.90;;;;;;4920093;28;94046;-30
2023/03/27 01:18:30;;;;;;;5.70;1.48;;;1.50;99.90;;;;;;4920191;28;93972;-30
2023/03/27 01:21:28;;;;;;;21.85;2.75;;;1.50;99.90;;;;;;4919688;28;93452;-31
2023/03/27 01:24:07;;;;;;;5.82;2.15;;;1.50;99.90;;;;;;4919654;28;94271;-30
2023/03/27 01:27:15;;;;;;;11.10;2.95;;;1.50;99.90;;;;;;4919674;28;94623;-29
2023/03/27 01:29:52;;;;;;;5.55;2.25;;;1.50;99.90;;;;;;4920265;28;92752;-30
2023/03/27 01:32:41;;;;;;;2.85;2.03;;;1.50;99.90;;;;;;4920210;28;92199;-30
2023/03/27 01:35:50;;;;;;;4.53;3.22;;;1.40;99.90;;;;;;4919860;28;94934;-28
2023/03/27 01:38:34;;;;;;;2.10;1.38;;;1.40;99.90;;;;;;4920244;28;94318;-31
2023/03/27 01:41:14;;;;;;;3.38;1.77;;;1.40;99.90;;;;;;4919204;28;93931;-30
2023/03/27 01:44:07;;;;;;;5.45;1.55;;;1.30;99.90;;;;;;4919027;28;93300;-30
2023/03/27 01:47:01;;;;;;;6.82;2.08;;;1.40;99.90;;;;;;4918332;28;95999;-31
2023/03/27 01:49:31;;;;;;;5.75;1.92;;;1.40;99.90;;;;;;4904837;28;95341;-29
2023/03/27 01:52:01;;;;;;;3.42;1.55;;;1.40;99.90;;;;;;4919212;28;92348;-33
2023/03/27 01:54:29;;;;;;;2.53;2.25;;;1.40;99.90;;;;;;4919489;28;92159;-31
2023/03/27 01:57:03;;;;;;;2.95;1.95;;;1.50;99.90;;;;;;4918701;28;95364;-30
2023/03/27 01:59:32;;;;;;;5.35;2.55;;;1.50;99.90;;;;;;4918961;28;94381;-35
2023/03/27 02:02:09;;;;;;;14.65;3.42;;;1.50;99.90;;;;;;4919204;28;93911;-32
2023/03/27 02:04:49;;;;;;;6.82;1.83;;;1.40;99.90;;;;;;4920297;28;91922;-33
2023/03/27 02:07:24;;;;;;;5.72;2.20;;;1.50;99.90;;;;;;4919197;28;95006;-31
2023/03/27 02:09:54;;;;;;;4.10;2.10;;;1.50;99.90;;;;;;4917950;28;95205;-35
2023/03/27 02:12:27;;;;;;;11.75;2.92;;;1.50;99.90;;;;;;4918236;28;95050;-32
2023/03/27 02:14:55;;;;;;;4.78;1.55;;;1.50;99.90;;;;;;4918924;28;93721;-34
2023/03/27 02:17:24;;;;;;;;;;;1.50;99.90;;;;;;4919172;28;95038;-32
2023/03/27 02:19:59;;;;;;;2.50;1.83;;;1.50;99.90;;;;;;4920080;28;93668;-30
2023/03/27 02:22:25;;;;;;;2.38;1.33;;;1.40;99.90;;;;;;4918597;28;92203;-31
2023/03/27 02:24:55;;;;;;;11.10;2.55;;;1.40;99.90;;;;;;4918903;28;93293;-30
2023/03/27 02:27:40;;;;;;;5.00;2.67;;;1.40;99.90;;;;;;4918213;28;94621;-33
2023/03/27 02:30:05;;;;;;;5.40;1.63;;;1.50;99.90;;;;;;4919520;28;94281;-32
2023/03/27 02:33:13;;;;;;;3.30;1.50;;;1.40;99.90;;;;;;4918875;28;93290;-31
2023/03/27 02:36:07;;;;;;;19.95;2.88;;;1.40;99.90;;;;;;4917808;28;93905;-35
2023/03/27 02:38:42;;;;;;;3.67;2.30;;;1.40;99.90;;;;;;4917852;28;96090;-32
2023/03/27 02:41:28;;;;;;;5.60;1.98;;;1.40;99.90;;;;;;4917600;28;95598;-31
2023/03/27 02:43:57;;;;;;;8.32;2.13;;;1.40;99.90;;;;;;4918208;28;93361;-31
2023/03/27 02:46:52;;;;;;;3.30;1.58;;;1.40;99.90;;;;;;4918412;28;94188;-35
2023/03/27 02:49:25;;;;;;;4.72;1.55;;;1.40;99.90;;;;;;4918565;28;94821;-32
2023/03/27 02:52:17;;;;;;;3.30;2.13;;;1.40;99.90;;;;;;4916418;28;94662;-35
2023/03/27 02:54:49;;;;;;;2.17;2.00;;;1.40;99.90;;;;;;4917307;28;94187;-32
2023/03/27 02:57:20;;;;;;;5.13;1.60;;;1.40;99.90;;;;;;4917968;28;92273;-32
2023/03/27 02:59:55;;;;;;;4.53;1.70;;;1.40;99.90;;;;;;4917850;28;94553;-34
2023/03/27 03:02:24;;;;;;;6.85;2.08;;;1.40;99.90;;;;;;4917376;28;93475;-30
2023/03/27 03:05:00;;;;;;;1.38;1.27;;;1.40;99.90;;;;;;4916768;28;94058;-35
2023/03/27 03:07:25;;;;;;;8.38;2.60;;;1.40;99.90;;;;;;4918372;28;92762;-31
2023/03/27 03:09:52;;;;;;;2.05;1.38;;;1.50;99.90;;;;;;4917691;28;96348;-31
2023/03/27 03:12:18;;;;;;;7.05;1.80;;;1.40;99.90;;;;;;4917586;28;94220;-32
2023/03/27 03:14:44;;;;;;;7.53;1.70;;;1.40;99.90;;;;;;4917898;28;92237;-32
2023/03/27 03:17:12;;;;;;;5.22;1.85;;;1.50;99.90;;;;;;4917482;28;94040;-31
2023/03/27 03:19:38;;;;;;;2.70;1.33;;;1.50;99.90;;;;;;4917479;28;94365;-32
2023/03/27 03:22:04;;;;;;;2.97;1.48;;;1.50;99.90;;;;;;4918284;28;94275;-30
2023/03/27 03:24:31;;;;;;;8.82;1.77;;;1.40;99.90;;;;;;4918507;28;93470;-29
2023/03/27 03:26:56;;;;;;;5.70;1.70;;;1.40;99.90;;;;;;4917387;28;94614;-31
2023/03/27 03:29:28;;;;;;;4.15;1.75;;;1.40;99.90;;;;;;4917199;28;95337;-33
2023/03/27 03:31:57;;;;;;;16.70;2.28;;;1.40;99.90;;;;;;4917350;28;95163;-36
2023/03/27 03:34:23;;;;;;;6.15;1.67;;;1.40;99.90;;;;;;4917988;28;94958;-34
2023/03/27 03:36:48;;;;;;;2.45;1.60;;;1.40;99.90;;;;;;4915996;28;94058;-33
2023/03/27 03:39:15;;;;;;;3.50;1.45;;;1.30;99.90;;;;;;4916895;28;94438;-30
2023/03/27 03:41:41;;;;;;;5.93;2.95;;;1.30;99.90;;;;;;4917441;28;93631;-29
2023/03/27 03:44:08;;;;;;;4.45;1.48;;;1.30;99.90;;;;;;4917507;28;93810;-31
2023/03/27 03:46:34;;;;;;;5.38;1.63;;;1.30;99.90;;;;;;4918127;28;91933;-30
2023/03/27 03:49:00;;;;;;;11.45;2.65;;;1.30;99.90;;;;;;4915728;28;94135;-33
2023/03/27 03:51:27;;;;;;;5.00;1.63;;;1.30;99.90;;;;;;4916531;28;93068;-30
2023/03/27 03:53:52;;;;;;;5.60;1.85;;;1.30;99.90;;;;;;4916775;28;93029;-33
2023/03/27 03:56:18;;;;;;;4.15;1.50;;;1.30;99.90;;;;;;4915795;28;93276;-31
2023/03/27 03:58:44;;;;;;;7.82;2.03;;;1.30;99.90;;;;;;4916947;28;94987;-33
2023/03/27 04:01:09;;;;;;;3.83;2.25;;;1.30;99.90;;;;;;4918164;28;94586;-30
2023/03/27 04:03:35;;;;;;;6.53;1.30;;;1.30;99.90;;;;;;4916755;28;93290;-31
2023/03/27 04:06:04;;;;;;;1.50;0.90;;;1.30;99.90;;;;;;4918411;28;93822;-34
2023/03/27 04:08:30;;;;;;;3.22;1.88;;;1.30;99.90;;;;;;4920577;28;93370;-33
2023/03/27 04:10:56;;;;;;;4.05;1.55;;;1.20;99.90;;;;;;4920908;28;94421;-32
2023/03/27 04:13:22;;;;;;;3.38;1.50;;;1.30;99.90;;;;;;4920554;28;93851;-29
2023/03/27 04:15:48;;;;;;;3.78;2.08;;;1.30;99.90;;;;;;4919786;28;94278;-33
2023/03/27 04:18:14;;;;;;;8.27;2.53;;;1.30;99.90;;;;;;4919693;28;95998;-31
2023/03/27 04:20:40;;;;;;;10.10;2.60;;;1.30;99.90;;;;;;4920324;28;95757;-37
2023/03/27 04:23:07;;;;;;;2.13;1.77;;;1.30;99.90;;;;;;4920767;28;94765;-32
2023/03/27 04:25:33;;;;;;;1.63;1.48;;;1.30;99.90;;;;;;4920461;28;93398;-30
2023/03/27 04:28:01;;;;;;;2.10;1.33;;;1.30;99.90;;;;;;4919875;28;95834;-30
2023/03/27 04:30:27;;;;;;;3.63;1.73;;;1.30;99.90;;;;;;4920346;28;94576;-32
2023/03/27 04:32:53;;;;;;;2.97;1.50;;;1.30;99.90;;;;;;4920630;28;92139;-31
2023/03/27 04:35:20;;;;;;;2.35;1.98;;;1.30;99.90;;;;;;4920874;28;92366;-35
2023/03/27 04:37:47;;;;;;;2.05;1.42;;;1.20;99.90;;;;;;4919898;28;94821;-30
2023/03/27 04:40:14;;;;;;;8.27;2.03;;;1.20;99.90;;;;;;4919585;28;94844;-30
2023/03/27 04:42:43;;;;;;;6.20;1.63;;;1.20;99.90;;;;;;4919272;28;95065;-34
2023/03/27 04:45:19;;;;;;;2.50;1.42;;;1.20;99.90;;;;;;4920392;28;93171;-34
2023/03/27 04:47:46;;;;;;;3.35;1.92;;;1.10;99.90;;;;;;4920487;28;94260;-32
2023/03/27 04:50:11;;;;;;;10.38;1.95;;;1.20;99.90;;;;;;4919942;28;95624;-33
2023/03/27 04:52:38;;;;;;;3.28;1.52;;;1.20;99.90;;;;;;4919820;28;93625;-29
2023/03/27 04:55:04;;;;;;;7.85;2.88;;;1.20;99.90;;;;;;4920353;28;93489;-30
2023/03/27 04:57:31;;;;;;;8.85;2.67;;;1.20;99.90;;;;;;4918346;28;95405;-31
2023/03/27 04:59:58;;;;;;;3.60;1.38;;;1.20;99.90;;;;;;4918820;28;94382;-35
2023/03/27 05:02:25;;;;;;;7.00;2.45;;;1.20;99.90;;;;;;4918998;28;93353;-31
2023/03/27 05:04:57;;;;;;;4.15;2.53;;;1.20;99.90;;;;;;4918138;28;92188;-29
2023/03/27 05:07:23;;;;;;;2.65;1.35;;;1.20;99.90;;;;;;4918224;28;95425;-28
2023/03/27 05:09:49;;;;;;;2.25;1.17;;;1.20;99.90;;;;;;4918435;28;95586;-33
2023/03/27 05:12:15;;;;;;;3.47;1.67;;;1.20;99.90;;;;;;4918483;28;94790;-35
2023/03/27 05:14:40;;;;;;;2.72;1.42;;;1.20;99.90;;;;;;4915892;28;94109;-31
2023/03/27 05:17:06;;;;;;;3.17;1.50;;;1.20;99.90;;;;;;4916541;28;94192;-30
2023/03/27 05:19:32;;;;;;;7.78;1.85;;;1.20;99.90;;;;;;4918998;28;94425;-33
2023/03/27 05:21:57;;;;;;;6.00;1.80;;;1.20;99.90;;;;;;4918617;28;94307;-28
2023/03/27 05:24:23;;;;;;;6.95;2.38;;;1.20;99.90;;;;;;4919233;28;91645;-31
2023/03/27 05:26:48;;;;;;;4.88;1.67;;;1.20;99.90;;;;;;4917386;28;95126;-32
2023/03/27 05:29:15;;;;;;;4.90;1.80;;;1.10;99.90;;;;;;4918245;28;94541;-32
2023/03/27 05:31:41;;;;;;;4.85;1.55;;;1.20;99.90;;;;;;4918037;28;95476;-31
2023/03/27 05:34:06;;;;;;;2.90;1.65;;;1.20;99.90;;;;;;4918256;28;94283;-29
2023/03/27 05:36:34;;;;;;;7.63;2.17;;;1.20;99.90;;;;;;4918421;28;94748;-31
2023/03/27 05:39:00;;;;;;;3.30;1.77;;;1.10;99.90;;;;;;4918176;28;94795;-29
2023/03/27 05:41:26;;;;;;;3.95;2.40;;;1.20;99.90;;;;;;4918526;28;93377;-30
2023/03/27 05:43:52;;;;;;;4.18;1.52;;;1.20;99.90;;;;;;4918282;28;92852;-32
2023/03/27 05:46:18;;;;;;;3.53;1.73;;;1.20;99.90;;;;;;4918308;28;96793;-31
2023/03/27 05:48:44;;;;;;;5.15;1.60;;;1.20;99.90;;;;;;4917956;28;94671;-35
2023/03/27 05:51:09;;;;;;;3.25;1.85;;;1.30;99.90;;;;;;4917826;28;92126;-32
2023/03/27 05:53:39;;;;;;;4.10;1.88;;;1.30;99.90;;;;;;4917460;28;93934;-31
2023/03/27 05:56:06;;;;;;;5.70;1.52;;;1.30;99.90;;;;;;4877149;28;1162919;-28
2023/03/27 05:58:32;;;;;;;6.40;3.97;;;1.30;99.90;;;;;;4902099;28;95432;-34
2023/03/27 06:00:57;;;;;;;8.80;2.05;;;1.30;99.90;;;;;;4900074;28;94335;-32
2023/03/27 06:03:23;;;;;;;1.85;1.52;;;1.40;99.90;;;;;;4899262;28;93370;-33
2023/03/27 06:05:49;;;;;;;6.80;2.38;;;1.40;99.90;;;;;;4899565;28;94776;-32
2023/03/27 06:08:15;;;;;;;4.10;2.05;;;1.40;99.90;;;;;;4899177;28;94886;-31
2023/03/27 06:10:42;;;;;;;2.42;2.22;;;1.50;99.90;;;;;;4900121;28;95419;-36
2023/03/27 06:13:12;;;;;;;1.33;1.23;;;1.50;99.90;;;;;;4899904;28;93401;-29
2023/03/27 06:15:40;;;;;;;2.72;2.22;;;1.50;99.90;;;;;;4899653;28;94425;-32
2023/03/27 06:18:07;;;;;;;6.43;2.38;;;1.50;99.90;;;;;;4899422;28;94364;-31
2023/03/27 06:20:34;;;;;;;5.07;2.42;;;1.60;99.90;;;;;;4898977;28;94370;-30
2023/03/27 06:23:00;;;;;;;4.95;2.53;;;1.60;99.90;;;;;;4899453;28;92998;-30
2023/03/27 06:25:30;;;;;;;9.00;3.47;;;1.70;99.90;;;;;;4899904;28;94745;-30
2023/03/27 06:27:57;;;;;;;9.77;2.88;;;1.70;99.90;;;;;;4899166;28;95208;-28
2023/03/27 06:30:24;;;;;;;4.78;1.55;;;1.80;99.90;;;;;;4899542;28;94380;-30
2023/03/27 06:32:53;;;;;;;5.53;3.05;;;1.90;99.90;;;;;;4899915;28;93219;-32
2023/03/27 06:35:19;;;;;;;3.83;1.50;;;1.90;99.90;;;;;;4916162;28;94471;-35
2023/03/27 06:37:47;;;;;;;4.10;2.30;;;2.00;99.90;;;;;;4915689;28;94602;-31
2023/03/27 06:40:23;;;;;;;12.60;3.47;;;2.10;99.90;;;;;;4916177;28;94290;-34
2023/03/27 06:43:00;;;;;;;7.63;1.65;;;2.10;99.90;;;;;;4915741;28;93200;-31
2023/03/27 06:45:51;;;;;;;9.20;2.92;;;2.20;99.90;;;;;;4916144;28;95750;-35
2023/03/27 06:48:18;;;;;;;2.22;1.52;;;2.20;99.90;;;;;;4915204;28;95781;-32
2023/03/27 06:50:46;;;;;;;3.90;1.55;;;2.30;99.90;;;;;;4916418;28;92694;-29
2023/03/27 06:53:15;;;;;;;4.05;2.63;;;2.40;99.90;;;;;;4916541;28;92823;-30
2023/03/27 06:55:41;;;;;;;2.10;1.90;;;2.50;99.90;;;;;;4915635;28;94746;-30
2023/03/27 06:58:07;;;;;;;7.68;1.38;;;2.70;99.90;;;;;;4915840;28;94634;-35
2023/03/27 07:00:36;;;;;;;6.38;1.73;;;2.90;99.90;;;;;;4916148;28;92782;-32
2023/03/27 07:03:03;;;;;;;;;;;3.10;99.90;;;;;;4916597;28;92690;-32
2023/03/27 07:05:32;;;;;;;5.55;1.70;;;3.30;99.90;;;;;;4917085;28;93936;-32
2023/03/27 07:07:58;;;;;;;1.92;1.25;;;3.50;99.90;;;;;;4916175;28;94183;-30
2023/03/27 07:10:24;;;;;;;1.48;1.08;;;3.70;99.90;;;;;;4916176;28;94419;-34
2023/03/27 07:12:53;;;;;;;4.95;1.55;;;3.90;99.90;;;;;;4915399;28;93423;-32
2023/03/27 07:15:19;;;;;;;;;;;4.10;99.90;;;;;;4916497;28;94758;-31
2023/03/27 07:17:52;;;;;;;1.13;1.02;;;4.20;99.90;;;;;;4916884;28;93701;-30
2023/03/27 07:20:18;;;;;;;3.60;1.33;;;4.50;99.90;;;;;;4916974;28;92755;-33
2023/03/27 07:22:44;;;;;;;6.97;2.17;;;4.70;99.90;;;;;;4915587;28;93868;-32
2023/03/27 07:25:11;;;;;;;2.13;1.05;;;4.80;99.90;;;;;;4916310;28;93303;-32
2023/03/27 07:27:37;;;;;;;2.28;0.85;;;4.90;99.90;;;;;;4915912;28;94620;-32
2023/03/27 07:30:06;;;;;;;3.65;0.98;;;5.10;99.90;;;;;;4915613;28;94118;-29
2023/03/27 07:32:33;;;;;;;4.82;1.65;;;5.30;99.90;;;;;;4915263;28;92088;-29
2023/03/27 07:34:59;;;;;;;3.35;2.72;;;5.50;99.90;;;;;;4915018;28;95805;-32
2023/03/27 07:37:26;;;;;;;2.33;1.73;;;5.60;99.90;;;;;;4914889;28;95784;-32
2023/03/27 07:39:51;;;;;;;2.22;1.55;;;5.70;99.90;;;;;;4915758;28;93802;-32
2023/03/27 07:42:18;;;;;;;2.42;1.88;;;5.90;99.90;;;;;;4918887;28;92914;-31
2023/03/27 07:44:43;;;;;;;4.78;2.13;;;6.00;99.90;;;;;;4918394;28;93017;-34
2023/03/27 07:47:09;;;;;;;2.50;1.45;;;6.10;99.90;;;;;;4918420;28;94814;-32
2023/03/27 07:49:36;;;;;;;0.80;0.80;;;6.40;99.90;;;;;;4918813;28;93430;-29
2023/03/27 07:52:01;;;;;;;10.93;1.40;;;6.60;99.90;;;;;;4916479;28;93786;-31
2023/03/27 07:54:28;;;;;;;2.58;1.02;;;6.70;99.90;;;;;;4918444;28;94832;-32
2023/03/27 07:56:54;;;;;;;5.45;1.67;;;6.60;99.90;;;;;;4918120;28;94371;-30
2023/03/27 07:59:20;;;;;;;7.25;1.52;;;6.80;99.90;;;;;;4917839;28;96216;-34
2023/03/27 08:01:49;;;;;;;3.67;1.13;;;6.80;99.90;;;;;;4918938;28;93668;-29
2023/03/27 08:04:19;;;;;;;3.05;0.90;;;6.90;99.90;;;;;;4918698;28;94664;-30
2023/03/27 08:06:44;;;;;;;6.68;1.50;;;7.00;99.90;;;;;;4918404;28;93836;-31
2023/03/27 08:09:10;;;;;;;2.58;1.30;;;7.20;99.90;;;;;;4918811;28;92358;-31
2023/03/27 08:11:37;;;;;;;2.42;1.20;;;7.30;99.90;;;;;;4918491;28;93451;-30
2023/03/27 08:14:03;;;;;;;3.83;1.77;;;7.80;99.90;;;;;;4918159;28;94390;-30
2023/03/27 08:16:29;;;;;;;11.23;2.30;;;7.80;99.90;;;;;;4918397;28;94767;-31
2023/03/27 08:18:56;;;;;;;7.07;2.05;;;7.80;99.90;;;;;;4919179;28;92994;-31
2023/03/27 08:21:22;;;;;;;2.70;1.50;;;8.00;99.90;;;;;;4918798;28;95105;-29
2023/03/27 08:23:48;;;;;;;3.88;2.20;;;8.10;99.90;;;;;;4916829;28;95124;-32
2023/03/27 08:26:14;;;;;;;2.70;2.33;;;8.20;99.90;;;;;;4918615;28;94653;-30
2023/03/27 08:28:40;;;;;;;3.08;1.55;;;8.40;99.90;;;;;;4917740;28;93066;-34
2023/03/27 08:31:12;;;;;;;3.50;1.35;;;8.50;99.90;;;;;;4917998;28;93522;-32
2023/03/27 08:33:40;;;;;;;3.15;1.60;;;8.20;99.90;;;;;;4918394;28;94820;-29
2023/03/27 08:36:06;;;;;;;5.60;1.80;;;8.30;99.90;;;;;;4918020;28;95338;-32
2023/03/27 08:38:32;;;;;;;2.67;1.35;;;7.60;99.90;;;;;;4918342;28;94547;-30
2023/03/27 08:41:00;;;;;;;3.55;1.13;;;7.80;99.90;;;;;;4917653;28;92286;-33
2023/03/27 08:43:38;;;;;;;4.28;1.42;;;8.00;99.90;;;;;;4917669;28;94665;-34
2023/03/27 08:46:09;;;;;;;;;;;8.30;99.90;;;;;;4919044;28;94728;-31
2023/03/27 08:48:45;;;;;;;2.10;1.42;;;8.20;99.90;;;;;;4918829;28;93188;-29
2023/03/27 08:51:22;;;;;;;3.35;1.48;;;8.40;99.90;;;;;;4917972;28;93143;-32
2023/03/27 08:54:07;;;;;;;2.95;1.13;;;8.50;99.90;;;;;;4915589;28;94618;-29
2023/03/27 08:56:33;;;;;;;6.07;1.90;;;8.80;99.90;;;;;;4917231;28;94526;-33
2023/03/27 08:59:00;;;;;;;5.90;1.52;;;8.70;99.90;;;;;;4918318;28;93301;-29
2023/03/27 09:01:35;;;;;;;2.45;1.00;;;8.70;99.90;;;;;;4918057;28;92717;-30
2023/03/27 09:04:14;;;;;;;1.00;0.73;;;8.40;99.90;;;;;;4917076;28;94749;-33
2023/03/27 09:06:49;;;;;;;2.90;1.52;;;8.60;99.90;;;;;;4917674;28;94069;-31
2023/03/27 09:09:43;;;;;;;8.68;1.70;;;8.70;99.90;;;;;;4918147;28;93060;-30
2023/03/27 09:12:31;;;;;;;2.50;1.40;;;9.00;99.90;;;;;;4911346;28;93121;-34
2023/03/27 09:15:25;;;;;;;2.40;0.95;;;9.20;99.90;;;;;;4916767;28;96047;-30
2023/03/27 09:17:54;;;;;;;5.00;1.33;;;9.30;99.90;;;;;;4917357;28;95023;-31
2023/03/27 09:20:31;;;;;;;4.68;1.92;;;9.30;99.90;;;;;;4918315;28;93023;-30
2023/03/27 09:23:12;;;;;;;2.55;1.52;;;9.00;99.90;;;;;;4917831;28;94241;-32
2023/03/27 09:25:41;;;;;;;3.85;1.75;;;9.30;99.90;;;;;;4917497;28;94278;-30
2023/03/27 09:28:29;;;;;;;;;;;9.60;99.90;;;;;;4917898;28;94043;-31
2023/03/27 09:30:56;;;;;;;2.63;1.42;;;9.00;99.90;;;;;;4919700;28;93919;-33
2023/03/27 09:33:23;;;;;;;3.15;0.80;;;9.10;99.90;;;;;;4917740;28;92025;-30
2023/03/27 09:35:49;;;;;;;4.25;1.35;;;9.20;93.00;;;;;;4916517;28;94794;-29
2023/03/27 09:38:23;;;;;;;3.58;1.40;;;9.40;99.90;;;;;;4916599;28;94543;-29
2023/03/27 09:40:52;;;;;;;1.77;1.33;;;9.70;99.90;;;;;;4915865;28;94266;-31
2023/03/27 09:43:26;;;;;;;7.95;1.70;;;9.80;93.50;;;;;;4917235;28;94508;-31
2023/03/27 09:45:53;;;;;;;4.65;1.67;;;9.30;96.30;;;;;;4917297;28;94168;-28
2023/03/27 09:48:39;;;;;;;4.25;1.20;;;9.60;99.90;;;;;;4916428;28;95653;-33
2023/03/27 09:51:24;;;;;;;1.55;1.45;;;9.30;99.80;;;;;;4917123;28;93798;-32
2023/03/27 09:53:57;;;;;;;3.55;1.63;;;9.30;99.90;;;;;;4916742;28;93026;-31
2023/03/27 09:56:23;;;;;;;4.10;1.52;;;9.10;99.90;;;;;;4916299;28;95661;-32
2023/03/27 09:58:50;;;;;;;6.22;1.85;;;8.70;99.90;;;;;;4916892;28;94992;-33
2023/03/27 10:01:36;;;;;;;3.17;1.58;;;9.20;99.90;;;;;;4917272;28;93897;-31
2023/03/27 10:04:12;;;;;;;5.15;1.45;;;9.80;99.90;;;;;;4915860;28;93021;-29
2023/03/27 10:07:01;;;;;;;2.75;1.42;;;9.10;99.90;;;;;;4916505;28;96246;-33
2023/03/27 10:09:37;;;;;;;1.70;1.00;;;9.30;99.90;;;;;;4917296;28;94482;-28
2023/03/27 10:12:06;;;;;;;3.30;1.58;;;9.30;99.90;;;;;;4917153;28;94003;-30
2023/03/27 10:14:37;;;;;;;3.30;1.15;;;9.50;99.90;;;;;;4917055;28;93378;-29
2023/03/27 10:17:03;;;;;;;1.55;0.98;;;9.50;94.30;;;;;;4916588;28;94725;-33
2023/03/27 10:19:38;;;;;;;5.32;1.67;;;9.70;95.40;;;;;;4916662;28;94249;-29
2023/03/27 10:22:20;;;;;;;2.88;1.02;;;9.60;91.10;;;;;;4916812;28;94204;-29
2023/03/27 10:24:47;;;;;;;0.93;0.93;;;9.50;99.90;;;;;;4915983;28;93119;-29
2023/03/27 10:27:29;;;;;;;1.95;0.70;;;9.60;94.60;;;;;;4916360;28;94359;-32
2023/03/27 10:29:56;;;;;;;3.35;0.75;;;9.50;83.50;;;;;;4916190;28;94026;-32
2023/03/27 10:32:42;;;;;;;1.77;1.20;;;9.60;94.70;;;;;;4916527;28;95748;-33
2023/03/27 10:35:33;;;;;;;1.70;0.95;;;9.80;90.00;;;;;;4917059;28;93046;-31
2023/03/27 10:38:00;;;;;;;2.53;1.48;;;9.70;80.10;;;;;;4916180;28;94855;-32
2023/03/27 10:40:30;;;;;;;3.87;1.20;;;10.10;90.20;;;;;;4916698;28;95920;-29
2023/03/27 10:42:59;;;;;;;4.13;0.95;;;10.00;85.90;;;;;;4916536;28;92754;-29
2023/03/27 10:45:25;;;;;;;3.08;1.02;;;10.10;77.20;;;;;;4917021;28;93105;-29
2023/03/27 10:47:58;;;;;;;0.60;0.60;;;10.30;76.20;;;;;;4915937;28;95372;-31
2023/03/27 10:50:52;;;;;;;8.80;0.85;;;10.10;72.90;;;;;;4916692;28;93213;-29
2023/03/27 10:53:31;;;;;;;1.75;0.52;;;9.90;70.30;;;;;;4915974;28;93767;-32
2023/03/27 10:56:07;;;;;;;3.42;0.77;;;9.60;83.50;;;;;;4915834;28;93706;-29
2023/03/27 10:58:54;;;;;;;0.93;0.68;;;8.90;78.20;;;;;;4915577;28;95909;-32
2023/03/27 11:01:26;;;;;;;1.58;0.77;;;8.70;88.90;;;;;;4915748;28;95072;-33
2023/03/27 11:04:10;;;;;;;0.60;0.60;;;8.30;89.80;;;;;;4916240;28;94392;-29
2023/03/27 11:06:40;;;;;;;2.15;1.27;;;8.60;98.50;;;;;;4916211;28;94252;-33
2023/03/27 11:09:19;;;;;;;1.80;0.82;;;9.00;99.90;;;;;;4916207;28;95341;-29
2023/03/27 11:12:08;;;;;;;3.30;0.80;;;9.20;96.60;;;;;;4916546;28;95459;-31
2023/03/27 11:15:01;;;;;;;2.88;0.90;;;9.50;99.00;;;;;;4915690;28;93427;-30
2023/03/27 11:18:00;;;;;;;5.20;1.88;;;9.80;91.10;;;;;;4915834;28;92718;-30
2023/03/27 11:20:58;;;;;;;0.98;0.93;;;9.90;81.40;;;;;;4904091;28;94466;-34
2023/03/27 11:23:47;;;;;;;;;;;9.80;85.10;;;;;;4903354;28;94553;-31
2023/03/27 11:26:15;;;;;;;1.25;0.82;;;9.90;76.60;;;;;;4915379;28;94789;-29
2023/03/27 11:29:00;;;;;;;2.07;0.73;;;10.10;77.80;;;;;;4913892;28;94304;-30
2023/03/27 11:31:33;;;;;;;0.90;0.68;;;10.10;77.10;;;;;;4912531;28;95011;-32
2023/03/27 11:34:09;;;;;;;1.95;1.00;;;10.30;73.00;;;;;;4914638;28;94376;-30
2023/03/27 11:36:56;;;;;;;6.68;0.95;;;10.30;72.20;;;;;;4915884;28;93429;-28
2023/03/27 11:39:45;;;;;;;3.08;0.88;;;9.80;69.70;;;;;;4915544;28;94254;-30
2023/03/27 11:42:25;;;;;;;2.08;0.77;;;9.70;71.10;;;;;;4915305;28;93252;-32
2023/03/27 11:44:52;;;;;;;4.97;1.00;;;9.50;71.70;;;;;;4915914;28;94391;-32
2023/03/27 11:47:26;;;;;;;9.38;1.33;;;9.50;70.20;;;;;;4916544;28;93098;-30
2023/03/27 11:50:10;;;;;;;2.70;1.08;;;10.00;78.30;;;;;;4914563;28;93844;-33
2023/03/27 11:53:07;;;;;;;1.75;0.73;;;9.60;66.70;;;;;;4914885;28;96013;-29
2023/03/27 11:59:01;;;;;;;1.08;0.68;;;9.90;69.00;;;;;;4913595;28;92677;-29
2023/03/27 12:01:32;;;;;;;1.98;1.20;;;9.90;69.30;;;;;;4915836;28;92884;-33
2023/03/27 12:04:32;;;;;;;1.10;0.65;;;10.00;69.00;;;;;;4914802;28;95910;-33
2023/03/27 12:07:06;;;;;;;0.70;0.70;;;10.10;66.60;;;;;;4914872;28;94866;-33
2023/03/27 12:09:55;;;;;;;2.78;1.45;;;10.30;71.30;;;;;;4916425;28;93414;-30
2023/03/27 12:12:39;;;;;;;2.38;1.15;;;10.10;69.40;;;;;;4915585;28;92590;-32
2023/03/27 12:15:23;;;;;;;8.85;1.40;;;10.10;71.20;;;;;;4914334;28;94810;-32
2023/03/27 12:18:06;;;;;;;3.40;1.58;;;9.70;85.90;;;;;;4915331;28;94606;-31
2023/03/27 12:20:51;;;;;;;4.65;1.60;;;8.80;99.90;;;;;;4914833;28;94889;-32
2023/03/27 12:23:20;;;;;;;2.58;0.90;;;8.70;99.90;;;;;;4915054;28;94423;-34
2023/03/27 12:26:43;;;;;;;3.60;1.58;;;8.10;99.90;;;;;;4914448;28;95034;-31
2023/03/27 12:29:30;;;;;;;5.97;1.48;;;7.90;99.90;;;;;;4916292;28;95188;-32
2023/03/27 12:32:14;;;;;;;1.65;0.90;;;7.90;99.90;;;;;;4917780;28;93218;-30
2023/03/27 12:34:53;;;;;;;4.05;0.85;;;8.20;99.90;;;;;;4918138;28;92779;-33
2023/03/27 12:37:23;;;;;;;1.02;1.02;;;8.00;99.90;;;;;;4901621;28;94775;-30
2023/03/27 12:39:53;;;;;;;2.50;0.90;;;8.10;99.90;;;;;;4918372;28;95075;-33
2023/03/27 12:42:48;;;;;;;1.55;1.20;;;8.40;99.90;;;;;;4918807;28;92760;-31
2023/03/27 12:45:25;;;;;;;1.65;1.17;;;8.50;99.90;;;;;;4918560;28;92177;-31
2023/03/27 12:48:09;;;;;;;7.65;1.42;;;8.70;99.90;;;;;;4917418;28;95567;-32
2023/03/27 12:50:53;;;;;;;3.05;1.17;;;9.00;93.80;;;;;;4917806;28;96004;-30
2023/03/27 12:53:19;;;;;;;1.67;1.40;;;9.20;91.20;;;;;;4910959;28;94283;-32
2023/03/27 12:55:45;;;;;;;1.30;0.82;;;9.30;99.70;;;;;;4904603;28;94150;-30
2023/03/27 12:58:29;;;;;;;1.92;0.90;;;9.20;96.40;;;;;;4918046;28;94897;-31
2023/03/27 13:00:58;;;;;;;3.13;1.15;;;8.90;78.40;;;;;;4916189;28;94992;-34
2023/03/27 13:03:57;;;;;;;1.15;1.05;;;8.50;75.70;;;;;;4917128;28;93572;-31
2023/03/27 13:06:29;;;;;;;3.05;0.60;;;8.70;87.00;;;;;;4917704;28;91650;-33
2023/03/27 13:09:29;;;;;;;4.68;1.10;;;8.90;73.80;;;;;;4917071;28;94874;-31
2023/03/27 13:12:17;;;;;;;5.18;1.27;;;9.00;74.00;;;;;;4916807;28;94098;-35
2023/03/27 13:15:07;;;;;;;3.38;1.13;;;8.70;71.80;;;;;;4917243;28;95516;-33
2023/03/27 13:17:45;;;;;;;3.13;1.33;;;8.70;77.40;;;;;;4917132;28;93499;-31
2023/03/27 13:20:36;;;;;;;1.80;1.00;;;8.70;76.10;;;;;;4916856;28;94620;-31
2023/03/27 13:23:39;;;;;;;2.75;1.35;;;8.90;74.50;;;;;;4916330;28;93445;-31
2023/03/27 13:26:37;;;;;;;1.92;1.10;;;9.00;77.30;;;;;;4917587;28;94960;-34
2023/03/27 13:29:14;;;;;;;4.10;1.15;;;8.60;78.30;;;;;;4914704;28;94123;-30
2023/03/27 13:31:46;;;;;;;7.72;1.30;;;8.50;93.60;;;;;;4916584;28;95109;-34